createdAt,value
2023-01-18T00:01:25.904Z,-0.06
2023-01-18T00:03:26.648Z,-0.02
2023-01-18T00:05:26.638Z,-0.10
2023-01-18T00:07:26.390Z,-0.11
2023-01-18T00:09:26.376Z,-0.09
2023-01-18T00:11:26.629Z,-0.13
2023-01-18T00:13:26.543Z,-0.09
2023-01-18T00:15:26.873Z,-0.11
2023-01-18T00:17:26.486Z,-0.11
2023-01-18T00:19:26.300Z,-0.15
2023-01-18T00:21:25.705Z,-0.15
2023-01-18T00:23:26.802Z,-0.18
2023-01-18T00:25:26.271Z,-0.18
2023-01-18T00:27:26.262Z,-0.15
2023-01-18T00:29:25.929Z,-0.15
2023-01-18T00:31:26.485Z,-0.23
2023-01-18T00:33:26.412Z,-0.25
2023-01-18T00:35:25.841Z,-0.25
2023-01-18T00:36:26.591Z,-0.27
2023-01-18T00:37:26.840Z,-0.28
2023-01-18T00:39:25.642Z,-0.28
2023-01-18T00:40:26.218Z,-0.31
2023-01-18T00:41:25.810Z,-0.33
2023-01-18T00:43:26.293Z,-0.36
2023-01-18T00:44:26.128Z,-0.37
2023-01-18T00:45:26.128Z,-0.36
2023-01-18T00:47:26.145Z,-0.39
2023-01-18T00:49:26.129Z,-0.37
2023-01-18T00:51:25.867Z,-0.35
2023-01-18T00:53:26.474Z,-0.35
2023-01-18T00:54:26.104Z,-0.36
2023-01-18T00:55:26.203Z,-0.37
2023-01-18T00:57:26.712Z,-0.39
2023-01-18T00:58:25.571Z,-0.39
2023-01-18T00:59:25.791Z,-0.37
2023-01-18T01:01:33.733Z,-0.40
2023-01-18T01:02:26.757Z,-0.40
2023-01-18T01:03:26.243Z,-0.42
2023-01-18T01:05:26.084Z,-0.43
2023-01-18T01:06:26.234Z,-0.41
2023-01-18T01:07:26.692Z,-0.43
2023-01-18T01:09:27.233Z,-0.40
2023-01-18T01:11:27.050Z,-0.40
2023-01-18T01:13:27.289Z,-0.40
2023-01-18T01:15:26.748Z,-0.41
2023-01-18T01:17:26.979Z,-0.40
2023-01-18T01:19:27.132Z,-0.40
2023-01-18T01:21:27.019Z,-0.40
2023-01-18T01:23:26.873Z,-0.40
2023-01-18T01:25:26.732Z,-0.40
2023-01-18T01:27:27.174Z,-0.42
2023-01-18T01:29:26.804Z,-0.41
2023-01-18T01:31:27.098Z,-0.41
2023-01-18T01:33:26.697Z,-0.40
2023-01-18T01:35:26.409Z,-0.40
2023-01-18T01:37:26.455Z,0
2023-01-18T01:39:26.536Z,-0.37
2023-01-18T01:41:26.671Z,-0.37
2023-01-18T01:43:26.710Z,-0.38
2023-01-18T01:45:26.950Z,-0.40
2023-01-18T01:47:26.188Z,-0.38
2023-01-18T01:49:26.303Z,-0.36
2023-01-18T01:50:26.449Z,-0.37
2023-01-18T01:51:26.145Z,-0.39
2023-01-18T01:53:26.271Z,-0.40
2023-01-18T01:55:26.785Z,-0.41
2023-01-18T01:57:26.927Z,-0.40
2023-01-18T01:59:26.205Z,-0.40
2023-01-18T02:01:26.759Z,-0.39
2023-01-18T02:03:26.064Z,-0.39
2023-01-18T02:05:26.522Z,-0.37
2023-01-18T02:07:26.746Z,-0.42
2023-01-18T02:09:26.405Z,-0.41
2023-01-18T02:11:26.978Z,-0.51
2023-01-18T02:13:26.040Z,-0.49
2023-01-18T02:14:25.624Z,-0.45
2023-01-18T02:15:29.803Z,-0.40
2023-01-18T02:17:26.623Z,-0.39
2023-01-18T02:19:26.617Z,-0.40
2023-01-18T02:20:26.745Z,-0.37
2023-01-18T02:21:27.240Z,-0.41
2023-01-18T02:23:27.254Z,-0.41
2023-01-18T02:25:23.894Z,-0.38
2023-01-18T02:26:27.022Z,-0.40
2023-01-18T02:27:26.159Z,-0.39
2023-01-18T02:28:26.115Z,-0.38
2023-01-18T02:29:25.832Z,-0.35
2023-01-18T02:31:27.215Z,-0.36
2023-01-18T02:33:26.476Z,-0.36
2023-01-18T02:35:26.727Z,-0.35
2023-01-18T02:37:26.864Z,-0.36
2023-01-18T02:39:26.663Z,-0.36
2023-01-18T02:41:26.788Z,-0.34
2023-01-18T02:43:26.788Z,-0.36
2023-01-18T02:45:26.812Z,-0.35
2023-01-18T02:47:25.685Z,-0.34
2023-01-18T02:48:26.601Z,-0.33
2023-01-18T02:49:26.523Z,-0.36
2023-01-18T02:51:26.019Z,-0.39
2023-01-18T02:53:26.405Z,-0.41
2023-01-18T02:54:26.478Z,-0.41
2023-01-18T02:55:27.080Z,-0.41
2023-01-18T02:57:26.486Z,-0.43
2023-01-18T02:59:26.898Z,-0.39
2023-01-18T03:01:27.367Z,-0.39
2023-01-18T03:03:26.469Z,-0.39
2023-01-18T03:05:26.753Z,-0.38
2023-01-18T03:07:26.754Z,-0.39
2023-01-18T03:09:26.848Z,-0.38
2023-01-18T03:11:26.359Z,-0.37
2023-01-18T03:13:26.706Z,-0.40
2023-01-18T03:15:26.366Z,-0.40
2023-01-18T03:17:27.081Z,-0.40
2023-01-18T03:19:26.723Z,-0.42
2023-01-18T03:21:26.853Z,-0.41
2023-01-18T03:22:26.835Z,-0.41
2023-01-18T03:23:26.753Z,-0.39
2023-01-18T03:25:27.092Z,-0.40
2023-01-18T03:27:26.734Z,-0.42
2023-01-18T03:29:27.052Z,-0.45
2023-01-18T03:31:26.929Z,-0.44
2023-01-18T03:33:26.936Z,-0.43
2023-01-18T03:35:26.624Z,-0.43
2023-01-18T03:37:26.759Z,-0.44
2023-01-18T03:39:26.803Z,-0.47
2023-01-18T03:41:26.731Z,-0.49
2023-01-18T03:43:26.497Z,-0.47
2023-01-18T03:45:27.103Z,-0.44
2023-01-18T03:47:26.425Z,-0.45
2023-01-18T03:49:26.714Z,-0.49
2023-01-18T03:51:27.310Z,-0.46
2023-01-18T03:53:26.363Z,-0.47
2023-01-18T03:55:26.681Z,-0.52
2023-01-18T03:57:25.980Z,-0.53
2023-01-18T03:59:26.556Z,-0.5
2023-01-18T04:01:26.978Z,-0.49
2023-01-18T04:02:25.755Z,-0.49
2023-01-18T04:03:27.148Z,-0.49
2023-01-18T04:05:26.692Z,-0.46
2023-01-18T04:07:27.181Z,-0.46
2023-01-18T04:09:27.521Z,-0.46
2023-01-18T04:11:26.996Z,-0.45
2023-01-18T04:13:27.230Z,-0.43
2023-01-18T04:15:28.057Z,-0.44
2023-01-18T04:17:27.299Z,-0.43
2023-01-18T04:19:27.673Z,-0.42
2023-01-18T04:21:27.110Z,-0.44
2023-01-18T04:23:26.832Z,-0.45
2023-01-18T04:25:27.137Z,-0.43
2023-01-18T04:27:26.630Z,-0.40
2023-01-18T04:29:26.099Z,-0.41
2023-01-18T04:31:27.083Z,-0.39
2023-01-18T04:33:26.463Z,-0.40
2023-01-18T04:35:26.830Z,-0.40
2023-01-18T04:37:27.129Z,-0.37
2023-01-18T04:39:26.448Z,-0.37
2023-01-18T04:41:27.322Z,-0.34
2023-01-18T04:43:26.935Z,-0.32
2023-01-18T04:45:26.612Z,-0.34
2023-01-18T04:47:26.011Z,-0.34
2023-01-18T04:48:26.405Z,-0.35
2023-01-18T04:49:26.679Z,-0.31
2023-01-18T04:51:26.555Z,-0.39
2023-01-18T04:53:26.291Z,-0.34
2023-01-18T04:55:27.145Z,-0.37
2023-01-18T04:57:26.402Z,-0.36
2023-01-18T04:58:26.306Z,-0.36
2023-01-18T04:59:26.032Z,-0.38
2023-01-18T05:00:26.966Z,-0.36
2023-01-18T05:01:26.828Z,-0.34
2023-01-18T05:03:26.638Z,-0.33
2023-01-18T05:05:26.532Z,-0.33
2023-01-18T05:07:27.328Z,-0.34
2023-01-18T05:09:27.026Z,-0.33
2023-01-18T05:10:26.323Z,-0.33
2023-01-18T05:11:26.806Z,-0.31
2023-01-18T05:13:26.488Z,-0.31
2023-01-18T05:14:26.950Z,-0.32
2023-01-18T05:15:27.366Z,-0.34
2023-01-18T05:17:26.829Z,-0.31
2023-01-18T05:19:26.778Z,-0.32
2023-01-18T05:21:27.086Z,-0.30
2023-01-18T05:22:26.438Z,-0.30
2023-01-18T05:23:26.955Z,-0.30
2023-01-18T05:24:23.619Z,-0.30
2023-01-18T05:25:26.885Z,-0.29
2023-01-18T05:27:26.941Z,-0.28
2023-01-18T05:29:27.007Z,-0.29
2023-01-18T05:31:26.378Z,-0.30
2023-01-18T05:33:26.862Z,-0.32
2023-01-18T05:35:26.822Z,-0.32
2023-01-18T05:37:26.522Z,-0.35
2023-01-18T05:39:26.770Z,-0.31
2023-01-18T05:41:26.365Z,-0.31
2023-01-18T05:43:26.699Z,-0.30
2023-01-18T05:45:27.126Z,-0.30
2023-01-18T05:46:26.427Z,-0.30
2023-01-18T05:47:26.414Z,-0.27
2023-01-18T05:49:26.618Z,-0.22
2023-01-18T05:51:26.712Z,-0.20
2023-01-18T05:53:26.700Z,-0.20
2023-01-18T05:55:26.898Z,-0.18
2023-01-18T05:57:26.571Z,-0.20
2023-01-18T05:59:26.433Z,-0.21
2023-01-18T06:01:26.501Z,-0.23
2023-01-18T06:02:26.638Z,-0.22
2023-01-18T06:03:26.457Z,-0.11
2023-01-18T06:05:26.386Z,-0.20
2023-01-18T06:07:25.702Z,-0.22
2023-01-18T06:08:26.242Z,-0.24
2023-01-18T06:09:25.920Z,-0.23
2023-01-18T06:11:26.696Z,-0.28
2023-01-18T06:13:25.992Z,-0.30
2023-01-18T06:14:26.022Z,-0.30
2023-01-18T06:15:31.194Z,-0.31
2023-01-18T06:16:26.018Z,-0.31
2023-01-18T06:17:25.810Z,-0.29
2023-01-18T06:19:26.444Z,-0.32
2023-01-18T06:20:26.336Z,-0.34
2023-01-18T06:21:25.953Z,-0.37
2023-01-18T06:22:26.519Z,-0.41
2023-01-18T06:23:26.106Z,-0.41
2023-01-18T06:24:26.092Z,-0.41
2023-01-18T06:25:26.315Z,-0.40
2023-01-18T06:26:26.318Z,-0.41
2023-01-18T06:27:26.120Z,-0.41
2023-01-18T06:29:26.352Z,-0.49
2023-01-18T06:30:26.956Z,-0.50
2023-01-18T06:31:26.813Z,-0.49
2023-01-18T06:33:26.481Z,-0.54
2023-01-18T06:34:28.947Z,-0.51
2023-01-18T06:35:26.138Z,-0.52
2023-01-18T06:36:26.061Z,-0.51
2023-01-18T06:37:26.561Z,-0.52
2023-01-18T06:39:26.897Z,-0.52
2023-01-18T06:41:26.623Z,-0.55
2023-01-18T06:42:26.457Z,-0.56
2023-01-18T06:43:25.917Z,-0.56
2023-01-18T06:45:54.376Z,-0.57
2023-01-18T06:47:26.132Z,-0.54
2023-01-18T06:48:26.016Z,-0.56
2023-01-18T06:49:25.728Z,-0.56
2023-01-18T06:51:26.708Z,-0.57
2023-01-18T06:53:26.485Z,-0.64
2023-01-18T06:55:26.592Z,-0.62
2023-01-18T06:56:23.715Z,-0.62
2023-01-18T06:57:26.365Z,-0.62
2023-01-18T06:58:26.570Z,-0.62
2023-01-18T06:59:26.708Z,-0.61
2023-01-18T07:01:26.884Z,-0.62
2023-01-18T07:03:26.708Z,-0.62
2023-01-18T07:05:26.801Z,-0.66
2023-01-18T07:07:26.721Z,-0.63
2023-01-18T07:09:26.605Z,-0.64
2023-01-18T07:11:26.718Z,-0.64
2023-01-18T07:12:26.233Z,-0.62
2023-01-18T07:13:26.369Z,-0.64
2023-01-18T07:15:32.524Z,-0.61
2023-01-18T07:17:26.816Z,-0.65
2023-01-18T07:19:26.724Z,-0.65
2023-01-18T07:21:26.620Z,-0.65
2023-01-18T07:23:26.580Z,-0.66
2023-01-18T07:25:26.719Z,-0.70
2023-01-18T07:27:26.623Z,-0.71
2023-01-18T07:29:26.622Z,-0.75
2023-01-18T07:31:27.406Z,-0.75
2023-01-18T07:33:27.997Z,-0.76
2023-01-18T07:35:27.312Z,-0.76
2023-01-18T07:37:27.045Z,-0.80
2023-01-18T07:39:27.611Z,-0.76
2023-01-18T07:41:27.080Z,-0.78
2023-01-18T07:42:26.635Z,-0.78
2023-01-18T07:43:26.424Z,-0.75
2023-01-18T07:45:26.441Z,-0.77
2023-01-18T07:46:26.989Z,-0.77
2023-01-18T07:47:26.386Z,-0.76
2023-01-18T07:49:27.287Z,-0.76
2023-01-18T07:51:27.845Z,-0.78
2023-01-18T07:53:28.383Z,-0.77
2023-01-18T07:55:27.197Z,-0.77
2023-01-18T07:56:26.865Z,-0.77
2023-01-18T07:57:27.010Z,-0.78
2023-01-18T07:58:26.182Z,-0.79
2023-01-18T07:59:27.513Z,-0.81
2023-01-18T08:01:27.395Z,-0.81
2023-01-18T08:03:27.679Z,-0.87
2023-01-18T08:05:27.008Z,-0.87
2023-01-18T08:06:26.742Z,-0.84
2023-01-18T08:07:27.535Z,-0.79
2023-01-18T08:08:26.794Z,-0.79
2023-01-18T08:09:27.655Z,-0.81
2023-01-18T08:11:27.619Z,-0.80
2023-01-18T08:12:32.263Z,-0.78
2023-01-18T08:13:25.708Z,-0.78
2023-01-18T08:14:27.512Z,-0.78
2023-01-18T08:15:27.666Z,-0.78
2023-01-18T08:16:32.097Z,-0.81
2023-01-18T08:17:27.136Z,-0.81
2023-01-18T08:18:26.168Z,-0.81
2023-01-18T08:19:27.155Z,-0.78
2023-01-18T08:20:27.401Z,-0.78
2023-01-18T08:21:27.045Z,-0.75
2023-01-18T08:22:26.990Z,-0.75
2023-01-18T08:23:26.855Z,-0.77
2023-01-18T08:25:26.985Z,-0.75
2023-01-18T08:27:27.521Z,-0.74
2023-01-18T08:28:27.086Z,-0.74
2023-01-18T08:29:27.030Z,-0.76
2023-01-18T08:31:27.420Z,-0.74
2023-01-18T08:32:27.068Z,-0.70
2023-01-18T08:33:26.542Z,-0.71
2023-01-18T08:35:27.401Z,-0.69
2023-01-18T08:36:27.434Z,-0.69
2023-01-18T08:37:26.616Z,-0.68
2023-01-18T08:38:40.542Z,-0.66
2023-01-18T08:39:26.885Z,-0.66
2023-01-18T08:41:26.376Z,-0.62
2023-01-18T08:43:26.973Z,-0.61
2023-01-18T08:45:26.511Z,-0.52
2023-01-18T08:46:27.001Z,-0.52
2023-01-18T08:47:26.333Z,-0.48
2023-01-18T08:49:26.577Z,-0.46
2023-01-18T08:51:27.129Z,-0.42
2023-01-18T08:52:26.537Z,-0.42
2023-01-18T08:53:26.802Z,-0.43
2023-01-18T08:54:25.991Z,-0.45
2023-01-18T08:55:26.469Z,-0.42
2023-01-18T08:56:26.452Z,-0.38
2023-01-18T08:57:26.385Z,-0.36
2023-01-18T08:59:26.896Z,-0.32
2023-01-18T09:00:50.079Z,-0.32
2023-01-18T09:01:26.723Z,-0.27
2023-01-18T09:03:26.376Z,-0.23
2023-01-18T09:04:26.579Z,-0.22
2023-01-18T09:05:26.781Z,-0.22
2023-01-18T09:06:26.892Z,-0.19
2023-01-18T09:07:27.182Z,-0.16
2023-01-18T09:08:45.541Z,-0.16
2023-01-18T09:09:26.883Z,-0.15
2023-01-18T09:10:27.087Z,-0.12
2023-01-18T09:11:26.408Z,-0.10
2023-01-18T09:12:26.520Z,-0.07
2023-01-18T09:13:26.561Z,-0.04
2023-01-18T09:15:26.989Z,-0.00
2023-01-18T09:16:26.679Z,0.021
2023-01-18T09:17:26.662Z,0.038
2023-01-18T09:18:26.662Z,0.043
2023-01-18T09:19:26.338Z,0.061
2023-01-18T09:21:26.273Z,0.141
2023-01-18T09:22:26.611Z,0.158
2023-01-18T09:23:26.568Z,0.180
2023-01-18T09:24:26.934Z,0.206
2023-01-18T09:25:27.263Z,0.234
2023-01-18T09:26:26.734Z,0.272
2023-01-18T09:27:26.746Z,0.295
2023-01-18T09:28:27.025Z,0.303
2023-01-18T09:29:26.148Z,0.328
2023-01-18T09:30:26.554Z,0.365
2023-01-18T09:31:26.774Z,0.401
2023-01-18T09:33:36.971Z,0.472
2023-01-18T09:35:26.538Z,0.505
2023-01-18T09:37:26.453Z,0.547
2023-01-18T09:39:26.797Z,0.592
2023-01-18T09:41:26.843Z,0.644
2023-01-18T09:42:26.906Z,0.681
2023-01-18T09:43:26.651Z,0.711
2023-01-18T09:44:26.709Z,0.740
2023-01-18T09:45:27.995Z,0.772
2023-01-18T09:46:26.714Z,0.818
2023-01-18T09:47:26.972Z,0.855
2023-01-18T09:49:27.318Z,0.904
2023-01-18T09:50:26.716Z,0.948
2023-01-18T09:51:26.720Z,0.988
2023-01-18T09:52:26.577Z,1.016
2023-01-18T09:53:26.432Z,1.056
2023-01-18T09:55:26.994Z,1.144
2023-01-18T09:56:26.233Z,1.221
2023-01-18T09:57:26.476Z,1.274
2023-01-18T09:58:26.164Z,1.326
2023-01-18T09:59:26.258Z,1.360
2023-01-18T10:01:27.646Z,1.419
2023-01-18T10:02:26.642Z,1.448
2023-01-18T10:03:26.640Z,1.466
2023-01-18T10:04:26.587Z,1.501
2023-01-18T10:05:26.759Z,1.521
2023-01-18T10:06:27.171Z,1.548
2023-01-18T10:07:26.728Z,1.575
2023-01-18T10:08:26.913Z,1.611
2023-01-18T10:09:27.149Z,1.628
2023-01-18T10:10:26.430Z,1.654
2023-01-18T10:11:26.392Z,1.653
2023-01-18T10:13:26.939Z,1.698
2023-01-18T10:14:26.825Z,1.718
2023-01-18T10:15:27.349Z,1.736
2023-01-18T10:16:26.769Z,1.763
2023-01-18T10:17:26.761Z,1.798
2023-01-18T10:19:27.238Z,1.826
2023-01-18T10:20:26.421Z,1.826
2023-01-18T10:21:26.428Z,1.846
2023-01-18T10:23:28.070Z,1.863
2023-01-18T10:25:26.756Z,1.856
2023-01-18T10:26:26.779Z,1.861
2023-01-18T10:27:26.854Z,1.879
2023-01-18T10:28:26.734Z,1.883
2023-01-18T10:29:27.261Z,1.908
2023-01-18T10:30:27.123Z,1.940
2023-01-18T10:31:27.019Z,1.950
2023-01-18T10:32:26.498Z,1.936
2023-01-18T10:33:26.697Z,1.951
2023-01-18T10:35:27.307Z,1.988
2023-01-18T10:37:31.030Z,2.063
2023-01-18T10:38:26.636Z,2.063
2023-01-18T10:39:26.761Z,2.068
2023-01-18T10:41:31.681Z,2.148
2023-01-18T10:42:26.846Z,2.148
2023-01-18T10:43:26.608Z,2.128
2023-01-18T10:44:26.522Z,2.133
2023-01-18T10:45:26.930Z,2.146
2023-01-18T10:47:27.790Z,2.170
2023-01-18T10:48:26.799Z,2.201
2023-01-18T10:49:26.534Z,2.230
2023-01-18T10:50:26.640Z,2.253
2023-01-18T10:51:26.705Z,2.267
2023-01-18T10:52:26.812Z,2.282
2023-01-18T10:53:27.119Z,2.294
2023-01-18T10:54:26.582Z,2.325
2023-01-18T10:55:26.938Z,2.336
2023-01-18T10:56:27.301Z,2.378
2023-01-18T10:57:26.750Z,2.390
2023-01-18T10:58:27.012Z,2.390
2023-01-18T10:59:26.732Z,2.414
2023-01-18T11:01:27.526Z,2.408
2023-01-18T11:02:26.800Z,2.426
2023-01-18T11:03:26.746Z,2.471
2023-01-18T11:04:26.930Z,2.471
2023-01-18T11:05:27.237Z,2.492
2023-01-18T11:06:27.184Z,2.529
2023-01-18T11:07:31.908Z,2.577
2023-01-18T11:08:26.875Z,2.568
2023-01-18T11:09:27.185Z,2.595
2023-01-18T11:10:26.612Z,2.611
2023-01-18T11:11:31.717Z,2.595
2023-01-18T11:12:26.915Z,2.598
2023-01-18T11:13:26.884Z,2.619
2023-01-18T11:14:27.513Z,2.630
2023-01-18T11:15:27.071Z,2.630
2023-01-18T11:16:26.643Z,2.630
2023-01-18T11:17:26.664Z,2.623
2023-01-18T11:19:27.305Z,2.644
2023-01-18T11:20:26.795Z,2.681
2023-01-18T11:21:26.939Z,2.696
2023-01-18T11:23:26.800Z,2.704
2023-01-18T11:25:26.754Z,2.694
2023-01-18T11:27:26.416Z,2.728
2023-01-18T11:28:26.656Z,2.713
2023-01-18T11:29:28.481Z,2.766
2023-01-18T11:30:27.142Z,2.788
2023-01-18T11:31:26.590Z,2.776
2023-01-18T11:32:26.684Z,2.755
2023-01-18T11:33:26.817Z,2.748
2023-01-18T11:34:27.043Z,2.763
2023-01-18T11:35:26.625Z,2.763
2023-01-18T11:36:26.759Z,2.736
2023-01-18T11:37:27.258Z,2.730
2023-01-18T11:38:26.499Z,2.728
2023-01-18T11:39:26.896Z,2.741
2023-01-18T11:41:26.710Z,2.740
2023-01-18T11:42:26.851Z,2.779
2023-01-18T11:43:26.921Z,2.788
2023-01-18T11:45:25.579Z,2.806
2023-01-18T11:46:26.720Z,2.806
2023-01-18T11:47:26.728Z,2.825
2023-01-18T11:49:26.720Z,2.825
2023-01-18T11:50:35.194Z,2.826
2023-01-18T11:51:26.633Z,2.826
2023-01-18T11:52:26.681Z,2.839
2023-01-18T11:53:27.103Z,2.876
2023-01-18T11:54:27.264Z,2.913
2023-01-18T11:55:27.512Z,2.991
2023-01-18T11:57:27.134Z,2.996
2023-01-18T11:58:26.743Z,2.978
2023-01-18T11:59:26.882Z,2.968
2023-01-18T12:01:27.048Z,3.019
2023-01-18T12:02:26.780Z,3.035
2023-01-18T12:03:27.482Z,3.046
2023-01-18T12:04:26.206Z,3.046
2023-01-18T12:05:26.505Z,3.061
2023-01-18T12:07:26.967Z,3.031
2023-01-18T12:08:26.914Z,3.049
2023-01-18T12:09:27.875Z,3.091
2023-01-18T12:13:26.925Z,3.166
2023-01-18T12:14:26.990Z,3.144
2023-01-18T12:15:26.722Z,3.163
2023-01-18T12:16:27.455Z,3.158
2023-01-18T12:17:27.046Z,3.158
2023-01-18T12:19:26.585Z,3.154
2023-01-18T12:20:26.942Z,3.153
2023-01-18T12:21:26.647Z,3.128
2023-01-18T12:22:26.913Z,3.111
2023-01-18T12:23:26.593Z,3.157
2023-01-18T12:24:26.643Z,3.160
2023-01-18T12:25:26.862Z,3.151
2023-01-18T12:26:26.766Z,3.164
2023-01-18T12:27:26.940Z,3.191
2023-01-18T12:28:26.980Z,3.223
2023-01-18T12:29:26.440Z,3.228
2023-01-18T12:30:26.823Z,3.236
2023-01-18T12:31:26.812Z,3.241
2023-01-18T12:32:27.158Z,3.263
2023-01-18T12:33:42.100Z,3.294
2023-01-18T12:34:26.166Z,3.289
2023-01-18T12:35:34.803Z,3.25
2023-01-18T12:36:26.688Z,3.25
2023-01-18T12:37:26.573Z,3.281
2023-01-18T12:38:26.727Z,3.312
2023-01-18T12:39:26.467Z,3.297
2023-01-18T12:40:26.823Z,3.302
2023-01-18T12:41:26.929Z,3.285
2023-01-18T12:42:26.741Z,3.267
2023-01-18T12:43:26.801Z,3.259
2023-01-18T16:35:26.736Z,2.595
2023-01-18T16:36:29.705Z,2.571
2023-01-18T16:37:26.484Z,2.568
2023-01-18T16:39:27.521Z,2.526
2023-01-18T16:41:26.696Z,2.488
2023-01-18T16:43:27.044Z,2.460
2023-01-18T16:44:26.279Z,2.468
2023-01-18T16:45:26.557Z,2.460
2023-01-18T16:47:27.337Z,2.424
2023-01-18T16:51:26.014Z,2.380
2023-01-18T16:52:26.444Z,2.398
2023-01-18T16:53:27.172Z,2.349
2023-01-18T16:55:27.094Z,2.345
2023-01-18T16:57:26.798Z,2.286
2023-01-18T16:59:27.438Z,2.232
2023-01-18T17:01:27.811Z,2.181
2023-01-18T17:03:27.396Z,2.154
2023-01-18T17:05:27.328Z,2.118
2023-01-18T17:06:26.751Z,2.118
2023-01-18T17:07:27.101Z,2.099
2023-01-18T17:08:26.833Z,2.099
2023-01-18T17:09:27.143Z,2.065
2023-01-18T17:11:26.910Z,2.028
2023-01-18T17:12:26.901Z,1.996
2023-01-18T17:13:27.342Z,1.957
2023-01-18T17:14:26.859Z,1.957
2023-01-18T17:15:30.263Z,1.953
2023-01-18T17:17:26.921Z,1.966
2023-01-18T17:19:26.664Z,1.946
2023-01-18T17:21:26.838Z,2.009
2023-01-18T17:23:26.864Z,2.016
2023-01-18T17:25:27.875Z,2.018
2023-01-18T17:27:26.696Z,2.026
2023-01-18T17:29:26.969Z,2.016
2023-01-18T17:31:26.231Z,2.038
2023-01-18T17:33:27.090Z,2.081
2023-01-18T17:35:27.157Z,2.088
2023-01-18T17:37:26.603Z,2.121
2023-01-18T17:38:33.846Z,2.091
2023-01-18T17:39:37.159Z,2.106
2023-01-18T17:40:44.059Z,2.093
2023-01-18T17:41:36.478Z,2.118
2023-01-18T17:42:39.611Z,2.131
2023-01-18T17:43:38.532Z,2.118
2023-01-18T17:45:26.753Z,2.170
2023-01-18T17:47:26.817Z,2.166
2023-01-18T17:49:26.888Z,2.208
2023-01-18T17:51:26.492Z,2.178
2023-01-18T17:53:26.656Z,2.190
2023-01-18T17:54:31.072Z,2.176
2023-01-18T17:55:35.020Z,2.200
2023-01-18T17:57:27.656Z,2.198
2023-01-18T17:59:26.438Z,2.228
2023-01-18T18:00:32.797Z,2.178
2023-01-18T18:01:27.329Z,2.171
2023-01-18T18:02:32.252Z,2.184
2023-01-18T18:03:27.121Z,2.196
2023-01-18T18:05:27.305Z,2.230
2023-01-18T18:06:53.374Z,2.261
2023-01-18T18:07:27.265Z,2.281
2023-01-18T18:09:27.249Z,2.251
2023-01-18T18:11:26.952Z,2.251
2023-01-18T18:13:26.829Z,2.276
2023-01-18T18:15:26.994Z,2.261
2023-01-18T18:16:29.385Z,2.238
2023-01-18T18:17:26.778Z,2.224
2023-01-18T18:18:33.827Z,2.236
2023-01-18T18:19:27.093Z,2.242
2023-01-18T18:21:27.370Z,2.279
2023-01-18T18:22:41.323Z,2.288
2023-01-18T18:23:26.561Z,2.299
2023-01-18T18:25:27.421Z,2.296
2023-01-18T18:27:37.496Z,2.289
2023-01-18T18:29:27.441Z,2.305
2023-01-18T18:30:46.161Z,2.294
2023-01-18T18:31:27.987Z,2.293
2023-01-18T18:33:26.919Z,2.263
2023-01-18T18:35:35.827Z,2.279
2023-01-18T18:37:26.836Z,2.275
2023-01-18T18:39:27.141Z,2.304
2023-01-18T18:41:26.941Z,2.311
2023-01-18T18:43:26.500Z,2.318
2023-01-18T18:45:26.517Z,2.331
2023-01-18T18:46:27.029Z,2.344
2023-01-18T18:47:26.680Z,2.361
2023-01-18T18:49:26.822Z,2.381
2023-01-18T18:51:26.309Z,2.420
2023-01-18T18:52:26.424Z,2.437
2023-01-18T18:53:37.572Z,2.408
2023-01-18T18:55:27.347Z,2.437
2023-01-18T18:56:45.820Z,2.437
2023-01-18T18:57:26.758Z,2.448
2023-01-18T18:59:26.726Z,2.420
2023-01-18T19:01:26.518Z,2.460
2023-01-18T19:03:26.780Z,2.438
2023-01-18T19:05:26.664Z,2.434
2023-01-18T19:06:27.025Z,2.431
2023-01-18T19:07:26.527Z,2.378
2023-01-18T19:09:26.749Z,2.398
2023-01-18T19:11:26.391Z,2.381
2023-01-18T19:13:28.650Z,2.390
2023-01-18T19:15:26.949Z,2.376
2023-01-18T19:17:40.057Z,2.378
2023-01-18T19:19:26.969Z,2.416
2023-01-18T19:21:26.604Z,2.373
2023-01-18T19:23:26.655Z,2.373
2023-01-18T19:25:26.892Z,2.376
2023-01-18T19:27:27.154Z,2.356
2023-01-18T19:29:27.439Z,2.341
2023-01-18T19:31:26.948Z,2.331
2023-01-18T19:33:27.227Z,2.341
2023-01-18T19:35:27.011Z,2.328
2023-01-18T19:37:27.449Z,2.315
2023-01-18T19:39:32.884Z,2.313
2023-01-18T19:41:27.223Z,2.313
2023-01-18T19:43:27.024Z,2.366
2023-01-18T19:45:37.958Z,2.363
2023-01-18T19:47:27.014Z,2.338
2023-01-18T19:49:26.641Z,2.319
2023-01-18T19:51:32.331Z,2.273
2023-01-18T19:53:26.538Z,2.293
2023-01-18T19:55:26.688Z,2.302
2023-01-18T19:57:27.011Z,2.259
2023-01-18T19:59:27.468Z,2.298
2023-01-18T20:01:45.537Z,2.293
2023-01-18T20:03:27.058Z,2.273
2023-01-18T20:05:27.602Z,2.253
2023-01-18T20:07:26.947Z,2.253
2023-01-18T20:09:42.315Z,2.288
2023-01-18T20:11:26.802Z,2.308
2023-01-18T20:13:26.628Z,2.319
2023-01-18T20:15:27.237Z,2.298
2023-01-18T20:16:26.753Z,2.298
2023-01-18T20:17:27.024Z,2.311
2023-01-18T20:18:26.587Z,2.308
2023-01-18T20:19:26.651Z,2.289
2023-01-18T20:20:41.508Z,2.284
2023-01-18T20:21:27.176Z,2.309
2023-01-18T20:22:26.474Z,2.309
2023-01-18T20:23:26.766Z,2.305
2023-01-18T20:25:27.257Z,2.319
2023-01-18T20:26:39.593Z,2.306
2023-01-18T20:27:27.634Z,2.305
2023-01-18T20:29:26.519Z,2.295
2023-01-18T20:31:34.677Z,2.318
2023-01-18T20:33:34.831Z,2.316
2023-01-18T20:35:34.858Z,2.328
2023-01-18T20:36:26.789Z,2.328
2023-01-18T20:37:27.261Z,2.305
2023-01-18T20:39:26.725Z,2.336
2023-01-18T20:41:26.517Z,2.326
2023-01-18T20:43:26.572Z,2.349
2023-01-18T20:45:27.409Z,2.329
2023-01-18T20:46:26.633Z,2.329
2023-01-18T20:47:31.927Z,2.289
2023-01-18T20:49:37.813Z,2.321
2023-01-18T20:51:26.387Z,2.336
2023-01-18T20:53:46.209Z,2.313
2023-01-18T20:55:27.068Z,2.306
2023-01-18T20:56:39.411Z,2.343
2023-01-18T20:57:45.778Z,2.339
2023-01-18T20:59:34.938Z,2.305
2023-01-18T21:00:30.289Z,2.318
2023-01-18T21:01:27.120Z,2.313
2023-01-18T21:03:26.346Z,2.339
2023-01-18T21:05:26.401Z,2.341
2023-01-18T21:07:27.163Z,2.384
2023-01-18T21:09:41.181Z,2.411
2023-01-18T21:11:27.001Z,2.393
2023-01-18T21:13:26.750Z,2.408
2023-01-18T21:15:27.394Z,2.380
2023-01-18T21:17:27.515Z,2.391
2023-01-18T21:18:26.750Z,2.388
2023-01-18T21:19:27.314Z,2.388
2023-01-18T21:21:26.626Z,2.406
2023-01-18T21:22:26.865Z,2.413
2023-01-18T21:23:27.330Z,2.418
2023-01-18T21:24:26.616Z,2.418
2023-01-18T21:25:27.559Z,2.401
2023-01-18T21:27:26.771Z,2.418
2023-01-18T21:29:27.520Z,2.443
2023-01-18T21:31:27.564Z,2.411
2023-01-18T21:33:27.624Z,2.404
2023-01-18T21:35:27.710Z,2.369
2023-01-18T21:37:27.763Z,2.411
2023-01-18T21:39:28.086Z,2.410
2023-01-18T21:41:27.107Z,2.411
2023-01-18T21:43:27.594Z,2.375
2023-01-18T21:45:27.057Z,2.347
2023-01-18T21:46:26.585Z,2.309
2023-01-18T21:47:28.096Z,2.269
2023-01-18T21:50:11.278Z,2.292
2023-01-18T21:51:27.316Z,2.339
2023-01-18T21:53:26.705Z,2.329
2023-01-18T21:55:26.512Z,2.329
2023-01-18T21:57:26.682Z,2.321
2023-01-18T21:58:26.545Z,2.276
2023-01-18T21:59:26.764Z,2.279
2023-01-18T22:01:27.331Z,2.263
2023-01-18T22:03:26.457Z,2.257
2023-01-18T22:04:26.565Z,2.247
2023-01-18T22:05:26.786Z,2.253
2023-01-18T22:07:27.031Z,2.289
2023-01-18T22:09:27.070Z,2.303
2023-01-18T22:11:27.240Z,2.296
2023-01-18T22:13:26.112Z,2.288
2023-01-18T22:15:26.576Z,2.316
2023-01-18T22:16:30.470Z,2.319
2023-01-18T22:17:26.804Z,2.309
2023-01-18T22:19:26.671Z,2.309
2023-01-18T22:20:26.808Z,2.298
2023-01-18T22:21:26.585Z,2.303
2023-01-18T22:23:27.347Z,2.306
2023-01-18T22:25:26.857Z,2.333
2023-01-18T22:27:27.031Z,2.345
2023-01-18T22:29:26.316Z,2.355
2023-01-18T22:31:26.523Z,2.355
2023-01-18T22:32:26.428Z,2.353
2023-01-18T22:33:26.175Z,2.375
2023-01-18T22:35:26.215Z,2.363
2023-01-18T22:37:26.567Z,2.338
2023-01-18T22:39:26.757Z,2.298
2023-01-18T22:41:26.805Z,2.308
2023-01-18T22:43:26.963Z,2.289
2023-01-18T22:45:26.605Z,2.288
2023-01-18T22:47:26.717Z,2.298
2023-01-18T22:49:26.235Z,2.296
2023-01-18T22:50:31.619Z,2.286
2023-01-18T22:51:26.146Z,2.289
2023-01-18T22:53:25.988Z,2.279
2023-01-18T22:55:26.378Z,2.293
2023-01-18T22:57:26.676Z,2.318
2023-01-18T22:59:26.946Z,2.308
2023-01-18T23:01:26.601Z,2.321
2023-01-18T23:03:28.146Z,2.335
2023-01-18T23:05:26.519Z,2.329
2023-01-18T23:07:26.567Z,2.354
2023-01-18T23:09:25.969Z,2.384
2023-01-18T23:11:26.163Z,2.395
2023-01-18T23:13:26.419Z,2.404
2023-01-18T23:15:26.292Z,2.415
2023-01-18T23:17:26.365Z,2.407
2023-01-18T23:18:25.551Z,2.407
2023-01-18T23:19:25.779Z,2.422
2023-01-18T23:20:26.463Z,2.437
2023-01-18T23:21:26.283Z,2.441
2023-01-18T23:23:26.011Z,2.452
2023-01-18T23:24:25.798Z,2.447
2023-01-18T23:25:26.948Z,2.431
2023-01-18T23:27:26.221Z,2.412
2023-01-18T23:28:26.037Z,2.414
2023-01-18T23:29:26.323Z,2.418
2023-01-18T23:30:26.405Z,2.431